Waupaca, WI

12:41 AM CDT on September 02, 2015 (GMT -0500)
Waupaca Municipal | | Change Station
CLOSE
Current Station
Airport
Location: Waupaca,
Elevation: 827 ft
Nearby Weather Stations

Elev 827 ft 44.33 °N, 89.02 °W | Updated 6 minutes ago

Clear
Clear
72 °F
Feels Like 72 °F
N
0
Wind Variable Wind from North

Today
High -- | Low -- °F
--% Chance of Precip.
Yesterday
High -- | Low -- °F
Precip. -- in
6:19 AM 7:30 PM
Waning Gibbous, 83% visible
Pressure 29.98 in
Visibility 4.0 miles
Clouds Clear
Dew Point 71 °F
Humidity 98%
Rainfall 0.00 in
Snow Depth Not available.
UV 0 out of 12
Pollen 10.40 out of 12
Air Quality Not available.
Flu Activity Not available.
METAR KPCZ 020535Z AUTO 00000KT 4SM BR CLR 22/22 A2998 RMK AO2 T02200217
Pressure 29.98 in
Visibility 4.0 miles
Clouds Clear
Dew Point 71 °F
Humidity 98%
Rainfall 0.00 in
Snow Depth Not available.
UV 0 out of 12
Pollen 10.40 out of 12
Air Quality Not available.
Flu Activity Not available.
METAR KPCZ 020535Z AUTO 00000KT 4SM BR CLR 22/22 A2998 RMK AO2 T02200217

10-Day Weather Forecast

×

Almanac

Astronomy

Sep. 02, 2015 Rise Set
Actual Time
Civil Twilight
Nautical Twilight
Astronomical Twilight
Moon
Length of Visible Light
Length of Day
Tomorrow will be .
, % of the Moon is Illuminated

Today's Extremes

State Highs State Lows

Community

WunderPhotos

Upload Photos

1,851,709 photos uploaded!

WunderBlogs® & News

Nearby

Air Quality

  Air Quality AQ Index Pollutant
Not available.

Snow Depth

Station Depth Elevation

Earthquake Activity

City Distance Mag. Time & Date
Minimum magnitude displayed is 2.5.

Coastal Water Temperatures

Place Temperature

Stations

Nearby Weather Stations

Station Location Temp. Windchill Dew Point Humidity Wind Precip. Elev Updated Type